| time (UTC) | temp C | wind direction | speed KPH | gust KPH | rain 1hr cm | rain 24hr cm | rain mn cm | humidity % | barometer mb |
| 20260906224539 | 13 | 19 | 14.5 | 20.9 | 0.00 | 2.24 | 1.45 | 87 | 1007.9 |
| 20260906223039 | 13 | 360 | 11.3 | 20.9 | 0.00 | 2.24 | 1.45 | 87 | 1008.0 |
| 20260906221539 | 13 | 327 | 14.5 | 19.3 | 0.00 | 2.24 | 1.45 | 87 | 1008.1 |
| 20260906220041 | 13 | 349 | 11.3 | 20.9 | 0.00 | 2.24 | 1.45 | 87 | 1008.2 |
| 20260906214543 | 13 | 360 | 14.5 | 20.9 | 0.00 | 2.24 | 1.45 | 86 | 1008.1 |
| 20260906213037 | 13 | 5 | 14.5 | 20.9 | 0.00 | 2.24 | 1.45 | 85 | 1008.0 |
| 20260906211537 | 13 | 346 | 14.5 | 20.9 | 0.00 | 2.24 | 1.45 | 85 | 1007.9 |
| 20260906210043 | 13 | 335 | 12.9 | 22.5 | 0.00 | 2.24 | 1.45 | 86 | 1008.0 |
| 20260906204536 | 13 | 11 | 17.7 | 24.1 | 0.00 | 2.24 | 1.45 | 86 | 1008.0 |
| 20260906203037 | 12 | 360 | 16.1 | 27.4 | 0.00 | 2.24 | 1.45 | 88 | 1008.0 |
| 20260906201543 | 12 | 355 | 16.1 | 27.4 | 0.00 | 2.24 | 1.45 | 86 | 1008.0 |
| 20260906200034 | 13 | 346 | 19.3 | 27.4 | 0.00 | 2.24 | 1.45 | 85 | 1008.1 |
| 20260906194534 | 13 | 355 | 17.7 | 30.6 | 0.00 | 2.24 | 1.45 | 83 | 1008.0 |
| 20260906193033 | 13 | 320 | 20.9 | 32.2 | 0.00 | 2.24 | 1.45 | 82 | 1008.1 |
| 20260906191534 | 13 | 9 | 22.5 | 29.0 | 0.00 | 2.24 | 1.45 | 81 | 1008.1 |
| 20260906190032 | 13 | 341 | 22.5 | 35.4 | 0.00 | 2.24 | 1.45 | 79 | 1008.1 |
| 20260906184531 | 13 | 19 | 25.7 | 40.2 | 0.00 | 2.24 | 1.45 | 79 | 1007.9 |
| 20260906183039 | 13 | 25 | 27.4 | 40.2 | 0.00 | 2.24 | 1.45 | 79 | 1007.8 |
| 20260906181538 | 12 | 13 | 27.4 | 37.0 | 0.00 | 2.24 | 1.45 | 80 | 1008.1 |
| 20260906180029 | 12 | 45 | 24.1 | 35.4 | 0.05 | 2.24 | 1.45 | 85 | 1008.7 |
| 20260906174525 | 11 | 34 | 29.0 | 37.0 | 0.05 | 2.24 | 1.45 | 89 | 1008.8 |
| 20260906173025 | 11 | 26 | 29.0 | 38.6 | 0.05 | 2.24 | 1.45 | 92 | 1009.1 |
| 20260906171523 | 11 | 43 | 29.0 | 37.0 | 0.05 | 2.24 | 1.45 | 93 | 1008.6 |
| 20260906170022 | 11 | 321 | 20.9 | 27.4 | 0.00 | 2.18 | 1.42 | 92 | 1010.4 |
| 20260906164521 | 11 | 17 | 17.7 | 27.4 | 0.00 | 2.18 | 1.42 | 91 | 1009.8 |
| 20260906163020 | 11 | 19 | 17.7 | 32.2 | 0.00 | 2.18 | 1.42 | 91 | 1009.9 |
| 20260906161535 | 11 | 33 | 25.7 | 37.0 | 0.00 | 2.18 | 1.42 | 93 | 1009.4 |
| 20260906160019 | 10 | 17 | 24.1 | 32.2 | 0.03 | 2.21 | 1.42 | 94 | 1009.6 |
| 20260906154519 | 10 | 15 | 22.5 | 35.4 | 0.10 | 2.21 | 1.42 | 93 | 1010.0 |
| 20260906153018 | 10 | 30 | 20.9 | 35.4 | 0.38 | 2.21 | 1.42 | 93 | 1010.1 |
| 20260906151520 | 10 | 12 | 20.9 | 30.6 | 0.66 | 2.21 | 1.42 | 93 | 1010.2 |
| 20260906150017 | 10 | 23 | 11.3 | 16.1 | 0.64 | 2.18 | 1.40 | 92 | 1010.8 |
| 20260906144522 | 10 | 323 | 16.1 | 29.0 | 0.56 | 2.11 | 1.32 | 92 | 1010.4 |
| 20260906143015 | 11 | 287 | 8.0 | 24.1 | 0.28 | 1.83 | 1.04 | 94 | 1011.0 |
| 20260906141517 | 11 | 257 | 17.7 | 37.0 | 0.00 | 1.55 | 0.76 | 93 | 1010.5 |
| 20260906140014 | 11 | 263 | 22.5 | 33.8 | 0.00 | 1.70 | 0.76 | 94 | 1010.1 |
| 20260906134515 | 11 | 355 | 12.9 | 20.9 | 0.00 | 1.70 | 0.76 | 94 | 1009.6 |
| 20260906133012 | 11 | 42 | 1.6 | 29.0 | 0.00 | 1.70 | 0.76 | 95 | 1009.8 |
| 20260906131512 | 11 | 36 | 24.1 | 33.8 | 0.00 | 1.70 | 0.76 | 94 | 1009.3 |
| 20260906130016 | 11 | 360 | 19.3 | 38.6 | 0.00 | 1.70 | 0.76 | 92 | 1009.8 |
| 20260906124511 | 12 | 351 | 24.1 | 45.1 | 0.00 | 1.70 | 0.76 | 90 | 1009.8 |
| 20260906123016 | 12 | 21 | 29.0 | 41.8 | 0.00 | 1.70 | 0.76 | 88 | 1009.8 |
| 20260906121521 | 12 | 333 | 29.0 | 41.8 | 0.00 | 1.70 | 0.76 | 86 | 1010.2 |
| 20260906120005 | 13 | 30 | 14.5 | 29.0 | 0.00 | 1.70 | 0.76 | 71 | 1010.1 |
| 20260906114507 | 12 | 15 | 6.4 | 24.1 | 0.00 | 1.70 | 0.76 | 86 | 1010.3 |
| 20260906113100 | 12 | 5 | 14.5 | 33.8 | 0.00 | 1.70 | 0.76 | 87 | 1010.5 |
| 20260906111557 | 12 | 10 | 24.1 | 32.2 | 0.00 | 1.70 | 0.76 | 88 | 1009.9 |
| 20260906110054 | 11 | 31 | 19.3 | 35.4 | 0.00 | 1.70 | 0.76 | 90 | 1009.8 |
| 20260906104554 | 11 | 13 | 30.6 | 41.8 | 0.00 | 1.70 | 0.76 | 91 | 1010.2 |
| 20260906103051 | 11 | 13 | 25.7 | 38.6 | 0.00 | 1.70 | 0.76 | 91 | 1010.4 |
| 20260906101550 | 11 | 38 | 37.0 | 45.1 | 0.03 | 1.70 | 0.76 | 92 | 1010.1 |
| 20260906100046 | 11 | 15 | 29.0 | 37.0 | 0.30 | 1.70 | 0.76 | 95 | 1010.5 |
| 20260906094557 | 11 | 355 | 20.9 | 32.2 | 0.33 | 1.70 | 0.76 | 96 | 1010.7 |
| 20260906093049 | 10 | 20 | 24.1 | 41.8 | 0.38 | 1.70 | 0.76 | 96 | 1010.7 |
| 20260906091544 | 10 | 27 | 30.6 | 41.8 | 0.36 | 1.68 | 0.71 | 96 | 1010.7 |
| 20260906090050 | 10 | 16 | 20.9 | 29.0 | 0.08 | 1.40 | 0.46 | 96 | 1011.8 |
| 20260906084542 | 10 | 321 | 20.9 | 30.6 | 0.05 | 1.37 | 0.43 | 96 | 1012.3 |
| 20260906083045 | 10 | 360 | 17.7 | 30.6 | 0.00 | 1.32 | 0.38 | 95 | 1011.7 |
| 20260906081537 | 10 | 12 | 24.1 | 33.8 | 0.00 | 1.32 | 0.38 | 95 | 1010.8 |
| 20260906080039 | 10 | 327 | 19.3 | 29.0 | 0.03 | 1.32 | 0.38 | 95 | 1011.9 |
| 20260906074534 | 10 | 342 | 12.9 | 25.7 | 0.03 | 1.32 | 0.38 | 95 | 1012.1 |
| 20260906073031 | 10 | 53 | 27.4 | 37.0 | 0.08 | 1.32 | 0.38 | 95 | 1011.4 |
| 20260906071529 | 10 | 5 | 22.5 | 30.6 | 0.28 | 1.32 | 0.38 | 94 | 1012.0 |
| 20260906070028 | 11 | 22 | 16.1 | 32.2 | 0.36 | 1.30 | 0.36 | 94 | 1012.4 |
| 20260906064529 | 11 | 15 | 25.7 | 33.8 | 0.36 | 1.30 | 0.36 | 94 | 1012.1 |
| 20260906063123 | 11 | 317 | 22.5 | 29.0 | 0.30 | 1.24 | 0.30 | 94 | 1012.8 |
| 20260906061519 | 10 | 325 | 14.5 | 24.1 | 0.10 | 1.04 | 0.10 | 94 | 1013.1 |
| 20260906060021 | 10 | 9 | 17.7 | 29.0 | 0.20 | 0.94 | 0.94 | 93 | 1012.8 |
| 20260906054515 | 10 | 350 | 19.3 | 32.2 | 0.33 | 0.94 | 0.94 | 93 | 1012.7 |
| 20260906053014 | 10 | 22 | 24.1 | 30.6 | 0.33 | 0.94 | 0.94 | 92 | 1012.3 |
| 20260906051516 | 10 | 360 | 22.5 | 32.2 | 0.33 | 0.94 | 0.94 | 91 | 1012.2 |
| 20260906050011 | 11 | 325 | 19.3 | 22.5 | 0.15 | 0.71 | 0.71 | 89 | 1013.9 |
| 20260906044509 | 11 | 360 | 20.9 | 30.6 | 0.25 | 0.61 | 0.61 | 87 | 1012.4 |
| 20260906043021 | 11 | 9 | 22.5 | 33.8 | 0.41 | 0.61 | 0.61 | 88 | 1011.6 |
| 20260906041508 | 11 | 36 | 25.7 | 33.8 | 0.43 | 0.61 | 0.61 | 88 | 1011.8 |
| 20260906040007 | 11 | 340 | 29.0 | 43.5 | 0.41 | 0.58 | 0.58 | 85 | 1010.9 |
| 20260906034504 | 11 | 360 | 6.4 | 12.9 | 0.18 | 0.36 | 0.36 | 84 | 1013.5 |
| 20260906033100 | 12 | 15 | 17.7 | 35.4 | 0.03 | 0.20 | 0.20 | 81 | 1012.7 |
| 20260906031558 | 12 | 5 | 25.7 | 37.0 | 0.00 | 0.18 | 0.18 | 78 | 1011.9 |
| 20260906030055 | 12 | 23 | 27.4 | 40.2 | 0.00 | 0.18 | 0.18 | 78 | 1011.2 |
| 20260906024556 | 12 | 11 | 20.9 | 29.0 | 0.00 | 0.18 | 0.18 | 77 | 1010.8 |
| 20260906023054 | 12 | 30 | 22.5 | 32.2 | 0.00 | 0.18 | 0.18 | 77 | 1010.6 |
| 20260906021559 | 13 | 15 | 22.5 | 32.2 | 0.00 | 0.18 | 0.18 | 76 | 1010.8 |
| 20260906020051 | 13 | 360 | 25.7 | 33.8 | 0.00 | 0.18 | 0.18 | 75 | 1010.7 |
| 20260906014552 | 13 | 342 | 20.9 | 33.8 | 0.00 | 0.18 | 0.18 | 73 | 1010.7 |
| 20260906013051 | 14 | 17 | 27.4 | 33.8 | 0.00 | 0.18 | 0.18 | 72 | 1010.4 |
| 20260906011550 | 14 | 11 | 24.1 | 33.8 | 0.00 | 0.18 | 0.18 | 71 | 1010.5 |
| 20260906010118 | 15 | 13 | 27.4 | 35.4 | 0.00 | 0.18 | 0.18 | 70 | 1010.2 |
| 20260906004605 | 15 | 15 | 22.5 | 33.8 | 0.00 | 0.18 | 0.18 | 70 | 1010.3 |
| 20260906003048 | 15 | 30 | 22.5 | 32.2 | 0.00 | 0.18 | 0.18 | 69 | 1010.5 |
| 20260906001600 | 15 | 333 | 20.9 | 33.8 | 0.00 | 0.18 | 0.18 | 69 | 1010.5 |
| 20260906000047 | 15 | 12 | 24.1 | 32.2 | 0.00 | 0.18 | 0.18 | 69 | 1010.6 |
| 20260905234545 | 15 | 5 | 20.9 | 33.8 | 0.00 | 0.18 | 0.18 | 69 | 1010.7 |
| 20260905233046 | 16 | 5 | 22.5 | 33.8 | 0.00 | 0.18 | 0.18 | 68 | 1010.6 |
| 20260905231545 | 16 | 350 | 14.5 | 29.0 | 0.00 | 0.18 | 0.18 | 64 | 1010.5 |
| 20260905230044 | 16 | 19 | 20.9 | 29.0 | 0.00 | 0.18 | 0.18 | 64 | 1010.5 |